Time;durP1;ratioP1;P1;durP2;ratioP2;P2;SDS_P1;SDS_P2;PMS_P1;PMS_P2;Temp;Humidity;BMP_temperature;BMP_pressure;BME280_temperature;BME280_humidity;BME280_pressure;Samples;Min_cycle;Max_cycle;Signal;HPM_P1;HPM_P2
2022/10/14 03:00:32;;;;;;;315.25;26.85;;;10.20;99.90;;;;;;6248213;22;20015;-77
2022/10/14 03:02:57;;;;;;;442.35;32.53;;;10.20;99.90;;;;;;6312099;22;20011;-78
2022/10/14 03:05:23;;;;;;;284.95;24.95;;;10.20;99.90;;;;;;6313094;22;20025;-80
2022/10/14 03:07:49;;;;;;;239.40;23.45;;;10.20;99.90;;;;;;6287818;22;20340;-79
2022/10/14 03:10:14;;;;;;;381.92;27.52;;;10.10;99.90;;;;;;6313393;22;20042;-83
2022/10/14 03:12:40;;;;;;;309.73;27.95;;;10.20;99.90;;;;;;6313477;22;20011;-78
2022/10/14 03:15:06;;;;;;;281.48;24.80;;;10.10;99.90;;;;;;6341244;22;20011;-82
2022/10/14 03:17:32;;;;;;;381.90;32.40;;;10.10;99.90;;;;;;6312939;22;20014;-80
2022/10/14 03:19:58;;;;;;;333.38;29.20;;;10.10;99.90;;;;;;6313358;22;20010;-80
2022/10/14 03:22:24;;;;;;;405.90;33.05;;;10.10;99.90;;;;;;6287315;22;20029;-81
2022/10/14 03:24:50;;;;;;;251.35;26.00;;;10.20;99.90;;;;;;6313364;22;20018;-77
2022/10/14 03:27:15;;;;;;;287.02;25.08;;;10.20;99.90;;;;;;6313195;22;20090;-78
2022/10/14 03:29:41;;;;;;;336.92;27.50;;;10.20;99.90;;;;;;6313506;22;20011;-79
2022/10/14 03:32:06;;;;;;;294.15;25.90;;;10.20;99.90;;;;;;6313416;22;20018;-80
2022/10/14 03:34:32;;;;;;;266.48;26.33;;;10.20;99.90;;;;;;6313328;22;20015;-83
2022/10/14 03:36:57;;;;;;;241.93;26.50;;;10.30;99.90;;;;;;6313459;22;20071;-81
2022/10/14 03:39:24;;;;;;;227.27;24.80;;;10.20;99.90;;;;;;6287527;22;20335;-79
2022/10/14 03:41:49;;;;;;;239.35;27.05;;;10.20;99.90;;;;;;6313031;22;20007;-78
2022/10/14 03:44:15;;;;;;;278.33;29.40;;;10.30;99.90;;;;;;6313271;22;20011;-83
2022/10/14 03:46:41;;;;;;;236.68;30.10;;;10.30;99.90;;;;;;6340656;22;20055;-79
2022/10/14 03:49:06;;;;;;;160.13;26.83;;;10.30;99.90;;;;;;6313407;22;20090;-82
2022/10/14 03:51:32;;;;;;;436.50;40.08;;;10.30;99.90;;;;;;6313112;22;20007;-83
2022/10/14 03:53:57;;;;;;;157.68;27.77;;;10.30;99.90;;;;;;6340863;22;20064;-82
2022/10/14 03:56:23;;;;;;;178.45;29.45;;;10.30;99.90;;;;;;6313003;22;20018;-78
2022/10/14 03:58:49;;;;;;;171.52;28.25;;;10.30;99.90;;;;;;6313114;22;20011;-80
2022/10/14 04:01:15;;;;;;;192.30;30.13;;;10.30;99.90;;;;;;6313195;22;20044;-78
2022/10/14 04:03:41;;;;;;;131.30;26.70;;;10.30;99.90;;;;;;6313066;22;20463;-82
2022/10/14 04:06:06;;;;;;;112.80;24.83;;;10.30;99.90;;;;;;6312784;22;20011;-81
2022/10/14 04:08:32;;;;;;;125.72;26.20;;;10.30;99.90;;;;;;6312918;22;20013;-82
2022/10/14 04:10:57;;;;;;;96.40;22.75;;;10.30;99.90;;;;;;6312505;22;20085;-77
2022/10/14 04:13:23;;;;;;;167.15;25.23;;;10.20;99.90;;;;;;6313132;22;20379;-80
2022/10/14 04:15:49;;;;;;;83.25;21.95;;;10.20;99.90;;;;;;6340811;22;20014;-83
2022/10/14 04:18:15;;;;;;;98.07;21.80;;;10.10;99.90;;;;;;6340843;22;20033;-82
2022/10/14 04:20:41;;;;;;;96.15;22.08;;;10.20;99.90;;;;;;6340278;22;20023;-80
2022/10/14 04:23:07;;;;;;;94.43;22.35;;;10.20;99.90;;;;;;6312766;22;20022;-76
2022/10/14 04:25:33;;;;;;;87.97;21.88;;;10.20;99.90;;;;;;6340516;22;20489;-82
2022/10/14 04:27:59;;;;;;;99.22;21.83;;;10.20;99.90;;;;;;6313211;22;20018;-80
2022/10/14 04:30:24;;;;;;;84.50;21.20;;;10.20;99.90;;;;;;6287192;22;20007;-79
2022/10/14 04:32:50;;;;;;;114.78;25.38;;;10.20;99.90;;;;;;6312871;22;20007;-82
2022/10/14 04:35:16;;;;;;;86.28;21.20;;;10.20;99.90;;;;;;6340843;22;20007;-82
2022/10/14 04:37:41;;;;;;;92.70;22.15;;;10.20;99.90;;;;;;6312677;22;20428;-81
2022/10/14 04:40:07;;;;;;;105.03;22.92;;;10.10;99.90;;;;;;6312730;22;20018;-79
2022/10/14 04:42:33;;;;;;;125.45;23.88;;;10.20;99.90;;;;;;6340625;22;20007;-80
2022/10/14 04:44:58;;;;;;;113.55;24.33;;;10.20;99.90;;;;;;6340450;22;20025;-80
2022/10/14 04:47:24;;;;;;;109.90;22.88;;;10.10;99.90;;;;;;6312835;22;20007;-83
2022/10/14 04:49:50;;;;;;;150.73;25.73;;;10.10;99.90;;;;;;6340269;22;20489;-84
2022/10/14 04:52:15;;;;;;;137.02;25.23;;;10.10;99.90;;;;;;6312417;22;20052;-83
2022/10/14 04:54:41;;;;;;;107.15;22.05;;;10.10;99.90;;;;;;6312410;22;20015;-78
2022/10/14 04:57:06;;;;;;;169.93;25.13;;;10.10;99.90;;;;;;6312276;22;20061;-79
2022/10/14 04:59:33;;;;;;;163.95;24.65;;;10.10;99.90;;;;;;6340204;22;20485;-76
2022/10/14 05:01:58;;;;;;;179.27;24.55;;;10.10;99.90;;;;;;6313029;22;20011;-85
2022/10/14 05:04:24;;;;;;;227.85;30.90;;;10.00;99.90;;;;;;6313046;22;20022;-78
2022/10/14 05:06:50;;;;;;;194.70;24.73;;;10.00;99.90;;;;;;6313042;22;20003;-77
2022/10/14 05:09:16;;;;;;;252.15;26.85;;;10.00;99.90;;;;;;6313396;22;20064;-78
2022/10/14 05:11:41;;;;;;;196.63;21.85;;;10.00;99.90;;;;;;6312876;22;20011;-79
2022/10/14 05:14:07;;;;;;;265.70;26.95;;;10.00;99.90;;;;;;6340673;22;20018;-83
2022/10/14 05:16:33;;;;;;;199.07;23.63;;;10.00;99.90;;;;;;6312166;22;20014;-82
2022/10/14 05:18:59;;;;;;;207.52;23.40;;;10.00;99.90;;;;;;6312494;22;20011;-82
2022/10/14 05:21:25;;;;;;;204.30;22.70;;;10.00;99.90;;;;;;6312288;22;20057;-80
2022/10/14 05:23:50;;;;;;;251.93;23.40;;;10.10;99.90;;;;;;6339785;22;20325;-83
2022/10/14 05:26:18;;;;;;;244.75;24.95;;;10.00;99.90;;;;;;6312270;22;20521;-82
2022/10/14 05:28:43;;;;;;;168.20;21.77;;;10.00;99.90;;;;;;6339950;22;20055;-79
2022/10/14 05:31:09;;;;;;;189.68;22.98;;;10.00;99.90;;;;;;6340957;22;20086;-83
2022/10/14 05:33:35;;;;;;;241.18;25.50;;;10.10;99.90;;;;;;6312416;22;20447;-84
2022/10/14 05:36:01;;;;;;;249.30;24.08;;;10.10;99.90;;;;;;6312199;22;20007;-82
2022/10/14 05:38:31;;;;;;;202.45;20.67;;;10.10;99.90;;;;;;6339677;22;20071;-80
2022/10/14 05:40:56;;;;;;;197.18;21.98;;;10.10;99.90;;;;;;6312026;22;20014;-83
2022/10/14 05:43:26;;;;;;;224.45;21.77;;;10.10;99.90;;;;;;6312080;22;20052;-83
2022/10/14 05:45:52;;;;;;;153.63;20.75;;;10.10;99.90;;;;;;6311892;22;20103;-80
2022/10/14 05:48:18;;;;;;;293.13;25.85;;;10.10;99.90;;;;;;6312065;22;20084;-81
2022/10/14 05:50:46;;;;;;;263.98;24.13;;;10.10;99.90;;;;;;6312225;22;20017;-84
2022/10/14 05:53:12;;;;;;;126.28;16.67;;;10.10;99.90;;;;;;6314810;22;20015;-76
2022/10/14 05:55:38;;;;;;;159.50;20.67;;;10.10;99.90;;;;;;6324616;22;20041;-78
2022/10/14 05:58:03;;;;;;;164.65;19.10;;;10.10;99.90;;;;;;6317472;22;20335;-81
2022/10/14 06:00:29;;;;;;;130.73;17.52;;;10.10;99.90;;;;;;6311948;22;20033;-77
2022/10/14 06:02:58;;;;;;;140.23;17.83;;;10.10;99.90;;;;;;6311298;22;20041;-82
2022/10/14 06:05:24;;;;;;;111.18;18.95;;;10.10;99.90;;;;;;6310616;22;20443;-82
2022/10/14 06:07:50;;;;;;;137.98;18.83;;;10.10;99.90;;;;;;6310746;22;20014;-80
2022/10/14 06:10:15;;;;;;;91.53;16.33;;;10.10;99.90;;;;;;6311046;22;20007;-83
2022/10/14 06:12:41;;;;;;;113.07;17.30;;;10.10;99.90;;;;;;6285069;22;20110;-85
2022/10/14 06:15:07;;;;;;;117.72;18.58;;;10.10;99.90;;;;;;6284880;22;20045;-81
2022/10/14 06:17:33;;;;;;;160.93;21.48;;;10.10;99.90;;;;;;6310436;22;20440;-80
2022/10/14 06:19:58;;;;;;;165.85;21.42;;;10.10;99.90;;;;;;6311432;22;20046;-79
2022/10/14 06:22:24;;;;;;;128.57;19.85;;;10.10;99.90;;;;;;6339752;22;20382;-85
2022/10/14 06:24:50;;;;;;;131.23;20.00;;;10.10;99.90;;;;;;6310201;22;20014;-81
2022/10/14 06:27:15;;;;;;;138.63;18.65;;;10.10;99.90;;;;;;6311824;22;20045;-83
2022/10/14 06:29:41;;;;;;;96.82;18.50;;;10.10;99.90;;;;;;6286311;22;20015;-84
2022/10/14 06:32:08;;;;;;;116.43;18.80;;;10.10;99.90;;;;;;6312541;22;20007;-82
2022/10/14 06:34:34;;;;;;;79.18;16.67;;;10.20;99.90;;;;;;6313228;22;20048;-85
2022/10/14 06:37:00;;;;;;;108.32;18.60;;;10.20;99.90;;;;;;6288222;22;20011;-82
2022/10/14 06:39:25;;;;;;;201.93;27.83;;;10.20;99.90;;;;;;6342209;22;20303;-79
2022/10/14 06:41:51;;;;;;;157.73;24.45;;;10.20;99.90;;;;;;6313549;22;20086;-81
2022/10/14 06:44:17;;;;;;;212.93;26.98;;;10.20;99.90;;;;;;6313449;22;20041;-82
2022/10/14 06:46:43;;;;;;;142.50;22.35;;;10.20;99.90;;;;;;6313791;22;20049;-80
2022/10/14 06:49:08;;;;;;;211.80;29.58;;;10.20;99.90;;;;;;6313719;22;20003;-81
2022/10/14 06:51:34;;;;;;;164.75;24.15;;;10.20;99.90;;;;;;6313915;22;20060;-86
2022/10/14 06:54:00;;;;;;;254.35;32.28;;;10.30;99.90;;;;;;6313762;22;20436;-80
2022/10/14 06:56:25;;;;;;;151.60;23.73;;;10.20;99.90;;;;;;6314352;22;20082;-84
2022/10/14 06:58:55;;;;;;;192.30;24.55;;;10.30;99.90;;;;;;6341447;22;20328;-83
2022/10/14 07:01:21;;;;;;;150.98;23.38;;;10.30;99.90;;;;;;6341107;22;20316;-85
2022/10/14 07:03:47;;;;;;;178.15;25.88;;;10.30;99.90;;;;;;6313783;22;20025;-80
2022/10/14 07:06:13;;;;;;;206.35;26.23;;;10.30;99.90;;;;;;6288185;22;20007;-87
2022/10/14 07:08:39;;;;;;;199.07;27.15;;;10.30;99.90;;;;;;6341534;22;20010;-83
2022/10/14 07:11:05;;;;;;;180.23;24.55;;;10.40;99.90;;;;;;6341240;22;20007;-83
2022/10/14 07:13:33;;;;;;;196.20;27.75;;;10.40;99.90;;;;;;6313574;22;20015;-81
2022/10/14 07:15:58;;;;;;;190.75;25.83;;;10.40;99.90;;;;;;6313723;22;20015;-86
2022/10/14 07:18:24;;;;;;;167.15;25.08;;;10.40;99.90;;;;;;6313593;22;20369;-85
2022/10/14 07:20:49;;;;;;;148.45;23.55;;;10.50;99.90;;;;;;6313902;22;20011;-85
2022/10/14 07:23:15;;;;;;;148.18;23.27;;;10.50;99.90;;;;;;6313408;22;20017;-83
2022/10/14 07:25:41;;;;;;;211.77;27.27;;;10.50;99.90;;;;;;6313760;22;20436;-86
2022/10/14 07:28:07;;;;;;;210.57;28.77;;;10.50;99.90;;;;;;6313992;22;20011;-85
2022/10/14 07:30:33;;;;;;;237.82;29.25;;;10.60;99.90;;;;;;6313485;22;20448;-82
2022/10/14 07:32:58;;;;;;;258.27;31.02;;;10.60;99.90;;;;;;6340834;22;20014;-80
2022/10/14 07:35:25;;;;;;;296.77;31.90;;;10.60;99.90;;;;;;6312851;22;20010;-84
2022/10/14 07:37:52;;;;;;;254.57;30.40;;;10.60;99.90;;;;;;6313189;22;20098;-87
2022/10/14 07:40:18;;;;;;;199.25;28.67;;;10.70;99.90;;;;;;6340909;22;20060;-83
2022/10/14 07:42:44;;;;;;;211.32;29.98;;;10.70;99.90;;;;;;6313424;22;20011;-79
2022/10/14 07:45:15;;;;;;;57.05;12.57;;;10.70;99.90;;;;;;6286965;22;20015;-80
2022/10/14 07:47:42;;;;;;;151.38;24.63;;;10.70;99.90;;;;;;6312603;22;20018;-82
2022/10/14 07:50:09;;;;;;;141.05;24.67;;;10.70;99.90;;;;;;6312937;22;20337;-80
2022/10/14 07:52:35;;;;;;;183.10;27.58;;;10.80;99.90;;;;;;6313358;22;20012;-83
2022/10/14 07:55:00;;;;;;;127.93;24.52;;;10.80;99.90;;;;;;6312988;22;20438;-84
2022/10/14 07:57:27;;;;;;;131.88;25.95;;;10.80;99.90;;;;;;6312600;22;20046;-79
2022/10/14 07:59:52;;;;;;;122.75;23.92;;;10.90;99.90;;;;;;6312925;22;20011;-81
2022/10/14 08:02:18;;;;;;;109.72;24.33;;;10.90;99.90;;;;;;6340355;22;20045;-84
2022/10/14 08:04:44;;;;;;;138.38;26.70;;;10.90;99.90;;;;;;6287069;22;20090;-83
2022/10/14 08:07:10;;;;;;;132.95;29.65;;;10.90;99.90;;;;;;6311934;22;20320;-82
2022/10/14 08:09:35;;;;;;;140.63;28.63;;;10.90;99.90;;;;;;6287184;22;20011;-84
2022/10/14 08:12:01;;;;;;;149.80;29.67;;;10.90;99.90;;;;;;6340695;22;20045;-85
2022/10/14 08:14:27;;;;;;;139.73;28.38;;;11.00;99.90;;;;;;6312713;22;20096;-84
2022/10/14 08:16:52;;;;;;;136.10;29.25;;;11.00;99.90;;;;;;6312720;22;20031;-85
2022/10/14 08:19:18;;;;;;;127.88;27.95;;;11.00;99.90;;;;;;6313646;22;20014;-80
2022/10/14 08:21:44;;;;;;;130.63;27.33;;;11.10;99.90;;;;;;6340460;22;20017;-83
2022/10/14 08:24:10;;;;;;;136.15;28.27;;;11.10;99.90;;;;;;6340795;22;20046;-86
2022/10/14 08:26:38;;;;;;;134.35;28.83;;;11.10;99.90;;;;;;6312746;22;20025;-86
2022/10/14 08:29:06;;;;;;;131.48;28.02;;;11.20;99.90;;;;;;6312760;22;20014;-86
2022/10/14 08:31:32;;;;;;;124.63;28.30;;;11.20;99.90;;;;;;6312144;22;20031;-85
2022/10/14 08:33:58;;;;;;;120.80;28.33;;;11.20;99.90;;;;;;6312649;22;20011;-82
2022/10/14 08:36:24;;;;;;;136.13;29.35;;;11.20;99.90;;;;;;6340031;22;20010;-78
2022/10/14 08:38:52;;;;;;;132.27;29.70;;;11.30;99.90;;;;;;6287414;22;20018;-80
2022/10/14 08:41:52;;;;;;;135.05;28.45;;;11.30;99.90;;;;;;6313080;22;20060;-82
2022/10/14 08:44:26;;;;;;;124.55;27.25;;;11.30;99.90;;;;;;6312606;22;20015;-83
2022/10/14 08:46:58;;;;;;;148.60;29.75;;;11.30;99.90;;;;;;6312895;22;20385;-85
2022/10/14 08:49:33;;;;;;;126.45;26.30;;;11.40;99.90;;;;;;6286984;22;20064;-85
2022/10/14 08:52:03;;;;;;;117.55;26.23;;;11.40;99.90;;;;;;6286957;22;20038;-81
2022/10/14 08:54:57;;;;;;;126.38;27.38;;;11.40;99.90;;;;;;6340877;22;20011;-80
2022/10/14 08:57:30;;;;;;;117.80;25.08;;;11.40;99.90;;;;;;6340288;22;20082;-81
2022/10/14 08:59:55;;;;;;;113.40;25.65;;;11.50;99.90;;;;;;6286741;22;20019;-83
2022/10/14 09:03:03;;;;;;;117.85;24.65;;;11.50;99.90;;;;;;6312692;22;20018;-83
2022/10/14 09:05:28;;;;;;;112.35;23.85;;;11.50;99.90;;;;;;6214128;23;20465;-82
2022/10/14 09:07:56;;;;;;;107.80;23.08;;;11.50;99.90;;;;;;6188878;23;20016;-82
2022/10/14 09:10:30;;;;;;;125.78;23.52;;;11.60;99.90;;;;;;6224931;22;20494;-81
2022/10/14 09:13:02;;;;;;;107.18;22.88;;;11.60;99.90;;;;;;6339656;22;20015;-83
2022/10/14 09:15:37;;;;;;;122.97;23.10;;;11.60;99.90;;;;;;6340782;22;20116;-83
2022/10/14 09:18:26;;;;;;;116.07;24.75;;;11.60;99.90;;;;;;6311991;22;20011;-82
2022/10/14 09:20:54;;;;;;;100.20;20.83;;;11.70;99.90;;;;;;6339351;22;20447;-81
2022/10/14 09:23:22;;;;;;;102.95;21.73;;;11.70;99.90;;;;;;6311739;22;20013;-81
2022/10/14 09:26:09;;;;;;;85.35;20.75;;;11.70;99.90;;;;;;6339709;22;20432;-83
2022/10/14 09:28:38;;;;;;;78.50;19.13;;;11.70;99.90;;;;;;6311853;22;20014;-82
2022/10/14 09:31:08;;;;;;;93.22;20.02;;;11.70;99.90;;;;;;6285789;22;20497;-83
2022/10/14 09:33:38;;;;;;;90.20;19.77;;;11.70;99.90;;;;;;6339485;22;20010;-82
2022/10/14 09:36:05;;;;;;;92.97;20.15;;;11.70;99.90;;;;;;6311834;22;20341;-83
2022/10/14 09:38:31;;;;;;;77.45;17.35;;;11.70;99.90;;;;;;6311598;22;20018;-81
2022/10/14 09:41:00;;;;;;;74.82;17.27;;;11.70;99.90;;;;;;6311381;22;20317;-83
2022/10/14 09:43:26;;;;;;;77.78;18.10;;;11.70;99.90;;;;;;6311578;22;20015;-83
2022/10/14 09:45:57;;;;;;;75.40;17.73;;;11.70;99.90;;;;;;6340075;22;20010;-80
2022/10/14 09:48:47;;;;;;;67.47;17.13;;;11.80;99.90;;;;;;6285695;22;20056;-83
2022/10/14 09:51:29;;;;;;;78.15;17.70;;;11.80;99.90;;;;;;6339543;22;20029;-84
2022/10/14 09:53:57;;;;;;;88.32;19.05;;;11.80;99.90;;;;;;6311554;22;20019;-82
2022/10/14 09:56:36;;;;;;;83.32;18.88;;;11.80;99.90;;;;;;6339882;22;20013;-81
2022/10/14 09:59:03;;;;;;;86.55;18.35;;;11.80;99.90;;;;;;6311642;22;20038;-83
2022/10/14 10:01:37;;;;;;;77.85;17.52;;;11.80;99.90;;;;;;6339291;22;20007;-81
2022/10/14 10:04:26;;;;;;;83.90;18.30;;;11.80;99.90;;;;;;6339908;22;20050;-84
2022/10/14 10:06:53;;;;;;;81.07;16.95;;;11.90;99.90;;;;;;6339554;22;20389;-82
2022/10/14 10:09:20;;;;;;;69.25;16.40;;;11.90;99.90;;;;;;6312838;22;20340;-80
2022/10/14 10:11:46;;;;;;;72.80;17.20;;;11.90;99.90;;;;;;6314664;22;20057;-83
2022/10/14 10:14:32;;;;;;;77.57;16.80;;;11.90;99.90;;;;;;6314945;22;20046;-81
2022/10/14 10:17:07;;;;;;;75.78;15.95;;;11.90;99.90;;;;;;6315160;22;20015;-82
2022/10/14 10:19:44;;;;;;;75.30;16.23;;;12.00;99.90;;;;;;6316537;22;20026;-81
2022/10/14 10:22:18;;;;;;;67.68;15.13;;;12.00;99.90;;;;;;6315372;22;20014;-79
2022/10/14 10:24:51;;;;;;;72.00;16.23;;;12.00;99.90;;;;;;6314781;22;20026;-82
2022/10/14 10:27:38;;;;;;;96.00;17.08;;;12.00;99.90;;;;;;6314969;22;20019;-82
2022/10/14 10:30:26;;;;;;;81.28;16.05;;;12.00;99.90;;;;;;6343681;22;20007;-83
2022/10/14 10:33:07;;;;;;;62.13;14.80;;;12.10;99.90;;;;;;6342934;22;20018;-83
2022/10/14 10:35:58;;;;;;;68.65;14.63;;;12.10;99.90;;;;;;6342330;22;20061;-83
2022/10/14 10:38:44;;;;;;;72.90;14.32;;;12.10;99.90;;;;;;6314892;22;20449;-83
2022/10/14 10:41:09;;;;;;;;;;;12.10;99.90;;;;;;6343602;22;20015;-82
2022/10/14 10:43:48;;;;;;;74.60;14.25;;;12.20;99.90;;;;;;6342862;22;19955;-80
2022/10/14 10:46:36;;;;;;;66.00;15.13;;;12.20;99.90;;;;;;6314754;22;20010;-79
2022/10/14 10:49:37;;;;;;;54.55;12.82;;;12.20;99.90;;;;;;6342158;22;20011;-83
2022/10/14 10:52:17;;;;;;;69.53;13.73;;;12.20;99.90;;;;;;6314513;22;20124;-82
2022/10/14 10:54:56;;;;;;;70.15;14.68;;;12.30;99.90;;;;;;6314491;22;20128;-78
2022/10/14 10:57:42;;;;;;;74.72;15.00;;;12.30;99.90;;;;;;6314335;22;20045;-81
2022/10/14 11:00:12;;;;;;;;;;;12.30;99.90;;;;;;6343105;22;20344;-84
2022/10/14 11:03:15;;;;;;;62.53;13.00;;;12.30;99.90;;;;;;6342757;22;19910;-82
2022/10/14 11:12:01;;;;;;;77.72;14.77;;;12.30;99.90;;;;;;6314420;22;20451;-83
2022/10/14 11:12:22;;;;;;;59.13;13.70;;;12.30;99.90;;;;;;6314667;22;20015;-80
2022/10/14 11:15:12;;;;;;;62.83;13.43;;;12.30;99.90;;;;;;6287937;22;20042;-83
2022/10/14 11:17:58;;;;;;;66.72;15.38;;;12.30;99.90;;;;;;6314852;22;20439;-81
2022/10/14 11:20:56;;;;;;;73.20;14.73;;;12.40;99.90;;;;;;6313715;22;20025;-84
2022/10/14 11:23:43;;;;;;;53.40;13.80;;;12.40;99.90;;;;;;6340716;22;20381;-83
2022/10/14 11:26:29;;;;;;;51.08;13.13;;;12.40;99.90;;;;;;6287071;22;20018;-82
2022/10/14 11:29:19;;;;;;;59.05;15.02;;;12.40;99.90;;;;;;6341375;22;20014;-82
2022/10/14 11:31:55;;;;;;;58.42;14.35;;;12.50;99.90;;;;;;6313032;22;20116;-83
2022/10/14 11:34:27;;;;;;;59.78;14.63;;;12.50;99.90;;;;;;6340855;22;20010;-82
2022/10/14 11:37:24;;;;;;;66.88;15.40;;;12.50;99.90;;;;;;6313141;22;20136;-83
2022/10/14 11:40:10;;;;;;;62.10;13.35;;;12.50;99.90;;;;;;6313516;22;20322;-81
2022/10/14 11:43:06;;;;;;;63.58;14.38;;;12.60;99.90;;;;;;6313200;22;20386;-81
2022/10/14 11:45:41;;;;;;;;;;;12.60;99.90;;;;;;6341550;22;20014;-84
2022/10/14 11:48:22;;;;;;;66.13;14.93;;;12.60;99.90;;;;;;6341560;22;19914;-84
2022/10/14 11:50:55;;;;;;;65.13;15.18;;;12.60;99.90;;;;;;6313915;22;20017;-83
2022/10/14 11:53:33;;;;;;;61.10;14.85;;;12.60;99.90;;;;;;6313567;22;20420;-83
2022/10/14 11:56:10;;;;;;;60.55;14.90;;;12.70;99.90;;;;;;6313204;22;20486;-83
2022/10/14 11:58:38;;;;;;;66.97;16.00;;;12.70;99.90;;;;;;6313016;22;20060;-83
2022/10/14 12:01:06;;;;;;;65.53;14.77;;;12.70;99.90;;;;;;6340676;22;20002;-83
2022/10/14 12:03:59;;;;;;;60.03;15.20;;;12.80;99.90;;;;;;6312668;22;20063;-84
2022/10/14 12:06:34;;;;;;;71.75;17.38;;;12.80;99.90;;;;;;6341288;22;20320;-82
2022/10/14 12:09:21;;;;;;;82.40;17.03;;;12.90;99.90;;;;;;6313998;22;20014;-84
2022/10/14 12:11:55;;;;;;;93.32;17.05;;;12.90;99.90;;;;;;6313069;22;20344;-82
2022/10/14 12:14:32;;;;;;;71.85;16.83;;;12.90;99.90;;;;;;6340868;22;20025;-80
2022/10/14 12:17:00;;;;;;;86.80;17.58;;;12.90;99.90;;;;;;6313030;22;20015;-84
2022/10/14 12:19:28;;;;;;;72.18;17.80;;;13.00;99.90;;;;;;6312688;22;20010;-81
2022/10/14 12:22:15;;;;;;;92.18;19.58;;;13.10;99.90;;;;;;6313010;22;20011;-84
2022/10/14 12:24:47;;;;;;;85.60;18.88;;;13.10;99.90;;;;;;6340422;22;20313;-80
2022/10/14 12:27:14;;;;;;;108.93;20.92;;;13.10;99.90;;;;;;6340971;22;20080;-79
2022/10/14 12:29:43;;;;;;;95.07;20.10;;;13.10;99.90;;;;;;6340597;22;20038;-83
2022/10/14 12:33:10;;;;;;;92.40;21.25;;;13.10;99.90;;;;;;6312455;22;20085;-84
2022/10/14 12:35:52;;;;;;;103.18;22.73;;;13.20;99.90;;;;;;6210079;23;20017;-83
2022/10/14 12:38:20;;;;;;;114.68;24.15;;;13.20;99.90;;;;;;6312821;22;20014;-83
2022/10/14 12:40:48;;;;;;;103.32;22.48;;;13.30;99.90;;;;;;6312514;22;20061;-85
2022/10/14 12:43:17;;;;;;;99.57;24.13;;;13.30;99.90;;;;;;6312601;22;20382;-79
2022/10/14 12:45:52;;;;;;;123.82;25.45;;;13.30;99.90;;;;;;6312592;22;20452;-83
2022/10/14 12:48:24;;;;;;;111.03;23.05;;;13.40;99.90;;;;;;6312781;22;20436;-82
2022/10/14 12:51:05;;;;;;;99.18;23.25;;;13.40;99.90;;;;;;6340303;22;20065;-82
2022/10/14 12:53:33;;;;;;;96.90;22.73;;;13.50;99.90;;;;;;6313453;22;20018;-82
2022/10/14 12:56:01;;;;;;;91.70;21.50;;;13.50;99.90;;;;;;6312837;22;20014;-80
2022/10/14 12:59:00;;;;;;;67.32;19.08;;;13.60;99.90;;;;;;6312244;22;20018;-82
2022/10/14 13:01:26;;;;;;;74.65;19.98;;;13.70;99.90;;;;;;6340436;22;20045;-80
2022/10/14 13:03:57;;;;;;;61.72;17.77;;;13.70;99.90;;;;;;6312514;22;20015;-82
2022/10/14 13:06:34;;;;;;;57.25;17.90;;;13.80;99.90;;;;;;6340572;22;20011;-82
2022/10/14 13:09:11;;;;;;;40.92;14.95;;;13.80;99.90;;;;;;6313172;22;20010;-83
2022/10/14 13:12:04;;;;;;;36.20;13.60;;;13.90;99.90;;;;;;6340360;22;20067;-82
2022/10/14 13:14:34;;;;;;;28.27;12.25;;;13.90;99.90;;;;;;6340576;22;20017;-82
2022/10/14 13:17:01;;;;;;;38.20;14.65;;;14.00;99.90;;;;;;6340218;22;20011;-82
2022/10/14 13:19:33;;;;;;;31.33;13.07;;;14.00;99.90;;;;;;6340151;22;20057;-81
2022/10/14 13:22:04;;;;;;;37.33;14.65;;;14.00;99.90;;;;;;6312224;22;20015;-86
2022/10/14 13:24:34;;;;;;;40.10;14.95;;;14.00;99.90;;;;;;6340350;22;20014;-81
2022/10/14 13:27:21;;;;;;;29.88;12.98;;;14.00;99.90;;;;;;6312397;22;20425;-83
2022/10/14 13:30:14;;;;;;;44.13;16.50;;;14.00;99.90;;;;;;6312755;22;20025;-81
2022/10/14 13:32:47;;;;;;;38.35;15.25;;;14.10;99.90;;;;;;6312339;22;20379;-82
2022/10/14 13:35:31;;;;;;;38.90;14.57;;;14.00;99.90;;;;;;6340242;22;20014;-81
2022/10/14 13:37:56;;;;;;;41.38;15.43;;;14.00;99.90;;;;;;6312071;22;20019;-82
2022/10/14 13:40:35;;;;;;;37.78;15.07;;;14.00;99.90;;;;;;6286341;22;20459;-81
2022/10/14 13:43:25;;;;;;;34.97;14.05;;;14.10;99.90;;;;;;6339949;22;20011;-83
2022/10/14 13:46:15;;;;;;;39.22;15.18;;;14.00;99.90;;;;;;6338690;22;20026;-82
2022/10/14 13:48:47;;;;;;;39.40;15.10;;;14.10;99.90;;;;;;6312066;22;20011;-79
2022/10/14 13:51:16;;;;;;;40.25;15.45;;;14.10;99.90;;;;;;6311669;22;20015;-81
2022/10/14 13:53:54;;;;;;;33.20;14.20;;;14.10;99.90;;;;;;6340088;22;20007;-81
2022/10/14 13:56:27;;;;;;;35.50;14.75;;;14.10;99.90;;;;;;6311661;22;20018;-81
2022/10/14 13:58:54;;;;;;;31.80;13.82;;;14.10;99.90;;;;;;6311557;22;20022;-82
2022/10/14 14:01:23;;;;;;;32.45;14.70;;;14.10;99.90;;;;;;6339434;22;20011;-82
2022/10/14 14:03:52;;;;;;;37.50;14.27;;;14.10;99.90;;;;;;6339828;22;20007;-84
2022/10/14 14:06:19;;;;;;;34.55;14.77;;;14.10;99.90;;;;;;6312926;22;20369;-79
2022/10/14 14:08:59;;;;;;;39.15;15.60;;;14.10;99.90;;;;;;6311830;22;20064;-82
2022/10/14 14:11:30;;;;;;;39.90;15.80;;;14.10;99.90;;;;;;6311728;22;20112;-82
2022/10/14 14:14:11;;;;;;;31.70;15.55;;;14.10;99.90;;;;;;6339383;22;20011;-83
2022/10/14 14:16:56;;;;;;;38.83;18.10;;;14.10;99.90;;;;;;6312045;22;20019;-78
2022/10/14 14:19:32;;;;;;;40.17;17.05;;;14.10;99.90;;;;;;6286152;22;20015;-82
2022/10/14 14:22:16;;;;;;;;;;;14.10;99.90;;;;;;6312303;22;20021;-79
2022/10/14 14:24:43;;;;;;;39.08;16.33;;;14.10;99.90;;;;;;6311302;22;19993;-81
2022/10/14 14:27:12;;;;;;;42.17;18.42;;;14.10;99.90;;;;;;6311788;22;20007;-79
2022/10/14 14:29:41;;;;;;;40.15;17.17;;;14.10;99.90;;;;;;6285754;22;20022;-80
2022/10/14 14:32:15;;;;;;;47.10;19.02;;;14.10;99.90;;;;;;6311674;22;20033;-83
2022/10/14 14:34:43;;;;;;;38.70;16.95;;;14.10;99.90;;;;;;6312029;22;20196;-82
2022/10/14 14:37:32;;;;;;;37.70;16.70;;;14.10;99.90;;;;;;6339627;22;20046;-83
2022/10/14 14:40:01;;;;;;;35.25;15.32;;;14.10;99.90;;;;;;6311881;22;20493;-81
2022/10/14 14:42:34;;;;;;;39.78;16.13;;;14.10;99.90;;;;;;6311690;22;20066;-80
2022/10/14 14:45:05;;;;;;;40.00;16.27;;;14.10;99.90;;;;;;6311741;22;20409;-82
2022/10/14 14:47:31;;;;;;;39.83;15.25;;;14.10;99.90;;;;;;6313071;22;20029;-82
2022/10/14 14:49:59;;;;;;;38.17;15.45;;;14.20;99.90;;;;;;6311488;22;20068;-83
2022/10/14 14:52:27;;;;;;;33.88;14.68;;;14.10;99.90;;;;;;6339163;22;20015;-84
2022/10/14 14:54:52;;;;;;;34.78;13.82;;;14.10;99.90;;;;;;6339775;22;20011;-81
2022/10/14 14:57:20;;;;;;;38.70;15.15;;;14.20;99.90;;;;;;6312919;22;20129;-81
2022/10/14 15:00:05;;;;;;;31.98;14.25;;;14.10;99.90;;;;;;6287740;22;20021;-81
2022/10/14 15:02:33;;;;;;;30.52;13.07;;;14.10;99.90;;;;;;6287359;22;20336;-82
2022/10/14 15:05:10;;;;;;;32.67;14.35;;;14.10;99.90;;;;;;6313630;22;20011;-83
2022/10/14 15:07:36;;;;;;;32.15;12.93;;;14.10;99.90;;;;;;6341532;22;20037;-78
2022/10/14 15:10:07;;;;;;;30.73;13.10;;;14.10;99.90;;;;;;6341352;22;20363;-82
2022/10/14 15:12:41;;;;;;;26.13;12.43;;;14.20;99.90;;;;;;6340909;22;20007;-80
2022/10/14 15:15:28;;;;;;;24.95;12.13;;;14.20;99.90;;;;;;6340928;22;20068;-82
2022/10/14 15:18:13;;;;;;;30.65;13.48;;;14.20;99.90;;;;;;6313133;22;20022;-82
2022/10/14 15:20:41;;;;;;;33.80;13.13;;;14.20;99.90;;;;;;6314136;22;20015;-82
2022/10/14 15:23:47;;;;;;;30.60;13.00;;;14.20;99.90;;;;;;6313432;22;20089;-83
2022/10/14 15:26:33;;;;;;;35.30;13.60;;;14.20;99.90;;;;;;6313031;22;20078;-81
2022/10/14 15:29:03;;;;;;;;;;;14.20;99.90;;;;;;6287705;22;20011;-79
2022/10/14 15:31:29;;;;;;;29.30;13.50;;;14.20;99.90;;;;;;6341588;22;19925;-82
2022/10/14 15:33:55;;;;;;;47.40;15.93;;;14.20;99.90;;;;;;6341002;22;20007;-83
2022/10/14 15:36:21;;;;;;;30.15;14.43;;;14.20;99.90;;;;;;6313155;22;20011;-83
2022/10/14 15:38:46;;;;;;;34.10;14.48;;;14.20;99.90;;;;;;6312362;22;20456;-82
2022/10/14 15:41:12;;;;;;;36.10;15.13;;;14.20;99.90;;;;;;6311846;22;20057;-81
2022/10/14 15:43:38;;;;;;;30.55;13.52;;;14.20;99.90;;;;;;6340941;22;20011;-85
2022/10/14 15:48:55;;;;;;;29.23;13.57;;;14.30;99.90;;;;;;6312955;22;20018;-82
2022/10/14 15:51:22;;;;;;;29.90;13.35;;;14.20;99.90;;;;;;6312924;22;20244;-85